Time,TemperatureF,DewpointF,PressureIn,WindDirection,WindDirectionDegrees,WindSpeedMPH,WindSpeedGustMPH,Humidity,HourlyPrecipIn,Conditions,Clouds,dailyrainin,SoftwareType,DateUTC
2013-03-15 00:02:00,31.0,31.0,-100.00,North,0,1.0,4.0,99,-99.99,,,-99.99,,2013-03-15 08:02:00,
2013-03-15 00:12:00,31.0,31.0,-100.00,North,0,1.0,4.0,99,-99.99,,,-99.99,,2013-03-15 08:12:00,
2013-03-15 00:22:00,30.0,30.0,-100.00,NE,35,2.0,3.0,99,-99.99,,,-99.99,,2013-03-15 08:22:00,
2013-03-15 00:32:00,30.0,30.0,-100.00,NE,35,2.0,3.0,99,-99.99,,,-99.99,,2013-03-15 08:32:00,
2013-03-15 00:42:00,30.0,30.0,-100.00,NE,35,2.0,3.0,99,-99.99,,,-99.99,,2013-03-15 08:42:00,
2013-03-15 00:52:00,30.0,30.0,-100.00,SW,220,1.0,4.0,99,-99.99,,,-99.99,,2013-03-15 08:52:00,
2013-03-15 01:02:00,30.0,30.0,-100.00,SW,220,1.0,4.0,99,-99.99,,,-99.99,,2013-03-15 09:02:00,
2013-03-15 01:12:00,30.0,30.0,-100.00,SW,220,1.0,4.0,99,-99.99,,,-99.99,,2013-03-15 09:12:00,
2013-03-15 01:21:00,29.0,29.0,-100.00,SSW,195,1.0,2.0,99,-99.99,,,-99.99,,2013-03-15 09:21:00,
2013-03-15 01:33:00,29.0,29.0,-100.00,SSW,195,1.0,2.0,99,-99.99,,,-99.99,,2013-03-15 09:33:00,
2013-03-15 01:42:00,29.0,29.0,-100.00,SSW,195,1.0,2.0,99,-99.99,,,-99.99,,2013-03-15 09:42:00,
2013-03-15 01:52:00,29.0,29.0,-100.00,NE,50,0.0,1.0,99,-99.99,,,-99.99,,2013-03-15 09:52:00,
2013-03-15 02:02:00,29.0,29.0,-100.00,NE,50,0.0,1.0,99,-99.99,,,-99.99,,2013-03-15 10:02:00,
2013-03-15 02:12:00,29.0,29.0,-100.00,NE,50,0.0,1.0,99,-99.99,,,-99.99,,2013-03-15 10:12:00,
2013-03-15 02:22:00,30.0,29.0,-100.00,SSE,165,3.0,6.0,99,-99.99,,,-99.99,,2013-03-15 10:22:00,
2013-03-15 02:32:00,30.0,29.0,-100.00,SSE,165,3.0,6.0,99,-99.99,,,-99.99,,2013-03-15 10:32:00,
2013-03-15 02:42:00,30.0,29.0,-100.00,SSE,165,3.0,6.0,99,-99.99,,,-99.99,,2013-03-15 10:42:00,
2013-03-15 02:51:00,29.0,29.0,-100.00,NNE,30,4.0,4.0,98,-99.99,,,-99.99,,2013-03-15 10:51:00,
2013-03-15 03:02:00,29.0,29.0,-100.00,NNE,30,4.0,4.0,98,-99.99,,,-99.99,,2013-03-15 11:02:00,
2013-03-15 03:12:00,29.0,29.0,-100.00,NNE,30,4.0,4.0,98,-99.99,,,-99.99,,2013-03-15 11:12:00,
2013-03-15 03:22:00,29.0,29.0,-100.00,NNW,335,1.0,1.0,99,-99.99,,,-99.99,,2013-03-15 11:22:00,
2013-03-15 03:32:00,29.0,29.0,-100.00,NNW,335,1.0,1.0,99,-99.99,,,-99.99,,2013-03-15 11:32:00,
2013-03-15 03:42:00,29.0,29.0,-100.00,NNW,335,1.0,1.0,99,-99.99,,,-99.99,,2013-03-15 11:42:00,
2013-03-15 03:52:00,29.0,29.0,-100.00,NE,35,1.0,1.0,99,-99.99,,,-99.99,,2013-03-15 11:52:00,
2013-03-15 04:02:00,29.0,29.0,-100.00,NE,35,1.0,1.0,99,-99.99,,,-99.99,,2013-03-15 12:02:00,
2013-03-15 04:12:00,29.0,29.0,-100.00,NE,35,1.0,1.0,99,-99.99,,,-99.99,,2013-03-15 12:12:00,
2013-03-15 04:22:00,29.0,28.0,-100.00,NNW,335,0.0,0.0,99,-99.99,,,-99.99,,2013-03-15 12:22:00,
2013-03-15 04:32:00,29.0,28.0,-100.00,NNW,335,0.0,0.0,99,-99.99,,,-99.99,,2013-03-15 12:32:00,
2013-03-15 04:42:00,29.0,28.0,-100.00,NNW,335,0.0,0.0,99,-99.99,,,-99.99,,2013-03-15 12:42:00,
2013-03-15 04:52:00,28.0,28.0,-100.00,SE,145,1.0,1.0,99,-99.99,,,-99.99,,2013-03-15 12:52:00,
2013-03-15 05:02:00,28.0,28.0,-100.00,SE,145,1.0,1.0,99,-99.99,,,-99.99,,2013-03-15 13:02:00,
2013-03-15 05:12:00,28.0,28.0,-100.00,SE,145,1.0,1.0,99,-99.99,,,-99.99,,2013-03-15 13:12:00,
2013-03-15 05:22:00,27.0,27.0,-100.00,WNW,300,1.0,2.0,99,-99.99,,,-99.99,,2013-03-15 13:22:00,
2013-03-15 05:32:00,27.0,27.0,-100.00,WNW,300,1.0,2.0,99,-99.99,,,-99.99,,2013-03-15 13:32:00,
2013-03-15 05:42:00,27.0,27.0,-100.00,WNW,300,1.0,2.0,99,-99.99,,,-99.99,,2013-03-15 13:42:00,
2013-03-15 05:52:00,26.0,26.0,-100.00,SSE,155,4.0,4.0,99,-99.99,,,-99.99,,2013-03-15 13:52:00,
2013-03-15 06:02:00,26.0,26.0,-100.00,SSE,155,4.0,4.0,99,-99.99,,,-99.99,,2013-03-15 14:02:00,
2013-03-15 06:12:00,26.0,26.0,-100.00,SSE,155,4.0,4.0,99,-99.99,,,-99.99,,2013-03-15 14:12:00,
2013-03-15 06:22:00,25.0,25.0,-100.00,SSE,160,2.0,3.0,99,-99.99,,,-99.99,,2013-03-15 14:22:00,
2013-03-15 06:32:00,25.0,25.0,-100.00,SSE,160,2.0,3.0,99,-99.99,,,-99.99,,2013-03-15 14:32:00,
2013-03-15 06:42:00,25.0,25.0,-100.00,SSE,160,2.0,3.0,99,-99.99,,,-99.99,,2013-03-15 14:42:00,
2013-03-15 06:51:00,25.0,25.0,-100.00,SSE,165,2.0,2.0,99,-99.99,,,-99.99,,2013-03-15 14:51:00,
2013-03-15 07:02:00,25.0,25.0,-100.00,SSE,165,2.0,2.0,99,-99.99,,,-99.99,,2013-03-15 15:02:00,
2013-03-15 07:12:00,25.0,25.0,-100.00,SSE,165,2.0,2.0,99,-99.99,,,-99.99,,2013-03-15 15:12:00,
2013-03-15 07:22:00,26.0,25.0,-100.00,SSE,150,2.0,2.0,98,-99.99,,,-99.99,,2013-03-15 15:22:00,
2013-03-15 07:33:00,26.0,25.0,-100.00,SSE,150,2.0,2.0,98,-99.99,,,-99.99,,2013-03-15 15:33:00,
2013-03-15 07:42:00,26.0,25.0,-100.00,SSE,150,2.0,2.0,98,-99.99,,,-99.99,,2013-03-15 15:42:00,
2013-03-15 07:52:00,25.0,24.0,-100.00,SSE,150,1.0,4.0,96,-99.99,,,-99.99,,2013-03-15 15:52:00,
2013-03-15 08:02:00,25.0,24.0,-100.00,SSE,150,1.0,4.0,96,-99.99,,,-99.99,,2013-03-15 16:02:00,
2013-03-15 08:12:00,25.0,24.0,-100.00,SSE,150,1.0,4.0,96,-99.99,,,-99.99,,2013-03-15 16:12:00,
2013-03-15 08:22:00,25.0,24.0,-100.00,South,170,2.0,4.0,95,-99.99,,,-99.99,,2013-03-15 16:22:00,
2013-03-15 08:32:00,25.0,24.0,-100.00,South,170,2.0,4.0,95,-99.99,,,-99.99,,2013-03-15 16:32:00,
2013-03-15 08:42:00,25.0,24.0,-100.00,South,170,2.0,4.0,95,-99.99,,,-99.99,,2013-03-15 16:42:00,
2013-03-15 08:52:00,25.0,23.0,-100.00,South,175,3.0,4.0,93,-99.99,,,-99.99,,2013-03-15 16:52:00,
2013-03-15 09:02:00,25.0,23.0,-100.00,South,175,3.0,4.0,93,-99.99,,,-99.99,,2013-03-15 17:02:00,
2013-03-15 09:12:00,25.0,23.0,-100.00,South,175,3.0,4.0,93,-99.99,,,-99.99,,2013-03-15 17:12:00,
2013-03-15 09:22:00,26.0,24.0,-100.00,SSE,155,4.0,6.0,91,-99.99,,,-99.99,,2013-03-15 17:22:00,
2013-03-15 09:32:00,26.0,24.0,-100.00,SSE,155,4.0,6.0,91,-99.99,,,-99.99,,2013-03-15 17:32:00,
2013-03-15 09:42:00,26.0,24.0,-100.00,SSE,155,4.0,6.0,91,-99.99,,,-99.99,,2013-03-15 17:42:00,
2013-03-15 09:52:00,27.0,24.0,-100.00,SSE,155,1.0,2.0,87,-99.99,,,-99.99,,2013-03-15 17:52:00,
2013-03-15 10:02:00,27.0,24.0,-100.00,SSE,155,1.0,2.0,87,-99.99,,,-99.99,,2013-03-15 18:02:00,
2013-03-15 10:12:00,27.0,24.0,-100.00,SSE,155,1.0,2.0,87,-99.99,,,-99.99,,2013-03-15 18:12:00,
2013-03-15 10:22:00,27.0,24.0,-100.00,SSE,160,3.0,4.0,86,-99.99,,,-99.99,,2013-03-15 18:22:00,
2013-03-15 10:32:00,27.0,24.0,-100.00,SSE,160,3.0,4.0,86,-99.99,,,-99.99,,2013-03-15 18:32:00,
2013-03-15 10:42:00,27.0,24.0,-100.00,SSE,160,3.0,4.0,86,-99.99,,,-99.99,,2013-03-15 18:42:00,
2013-03-15 10:52:00,29.0,25.0,-100.00,South,175,1.0,4.0,83,-99.99,,,-99.99,,2013-03-15 18:52:00,
2013-03-15 11:02:00,29.0,25.0,-100.00,South,175,1.0,4.0,83,-99.99,,,-99.99,,2013-03-15 19:02:00,
2013-03-15 11:12:00,29.0,25.0,-100.00,South,175,1.0,4.0,83,-99.99,,,-99.99,,2013-03-15 19:12:00,
2013-03-15 11:21:00,30.0,24.0,-100.00,SE,145,7.0,9.0,78,-99.99,,,-99.99,,2013-03-15 19:21:00,
2013-03-15 11:32:00,30.0,24.0,-100.00,SE,145,7.0,9.0,78,-99.99,,,-99.99,,2013-03-15 19:32:00,
2013-03-15 11:42:00,30.0,24.0,-100.00,SE,145,7.0,9.0,78,-99.99,,,-99.99,,2013-03-15 19:42:00,
2013-03-15 11:52:00,32.0,23.0,-100.00,SSE,150,6.0,7.0,69,-99.99,,,-99.99,,2013-03-15 19:52:00,
2013-03-15 12:02:00,32.0,23.0,-100.00,SSE,150,6.0,7.0,69,-99.99,,,-99.99,,2013-03-15 20:02:00,
2013-03-15 12:12:00,32.0,23.0,-100.00,SSE,150,6.0,7.0,69,-99.99,,,-99.99,,2013-03-15 20:12:00,
2013-03-15 12:22:00,34.0,23.0,-100.00,SE,130,6.0,10.0,62,-99.99,,,-99.99,,2013-03-15 20:22:00,
2013-03-15 12:31:00,34.0,23.0,-100.00,SE,130,6.0,10.0,62,-99.99,,,-99.99,,2013-03-15 20:31:00,
2013-03-15 12:42:00,34.0,23.0,-100.00,SE,130,6.0,10.0,62,-99.99,,,-99.99,,2013-03-15 20:42:00,
2013-03-15 12:51:00,35.0,23.0,-100.00,South,190,4.0,7.0,62,-99.99,,,-99.99,,2013-03-15 20:51:00,
2013-03-15 13:02:00,35.0,23.0,-100.00,South,190,4.0,7.0,62,-99.99,,,-99.99,,2013-03-15 21:02:00,
2013-03-15 13:12:00,35.0,23.0,-100.00,South,190,4.0,7.0,62,-99.99,,,-99.99,,2013-03-15 21:12:00,
2013-03-15 13:22:00,37.0,22.0,-100.00,SE,135,3.0,4.0,54,-99.99,,,-99.99,,2013-03-15 21:22:00,
2013-03-15 13:32:00,37.0,22.0,-100.00,SE,135,3.0,4.0,54,-99.99,,,-99.99,,2013-03-15 21:32:00,
2013-03-15 13:43:00,37.0,22.0,-100.00,SE,135,3.0,4.0,54,-99.99,,,-99.99,,2013-03-15 21:43:00,
2013-03-15 13:52:00,39.0,22.0,-100.00,SE,130,3.0,4.0,49,-99.99,,,-99.99,,2013-03-15 21:52:00,
2013-03-15 14:03:00,39.0,22.0,-100.00,SE,130,3.0,4.0,49,-99.99,,,-99.99,,2013-03-15 22:03:00,
2013-03-15 14:13:00,39.0,22.0,-100.00,SE,130,3.0,4.0,49,-99.99,,,-99.99,,2013-03-15 22:13:00,
2013-03-15 14:22:00,38.0,20.0,-100.00,SW,235,4.0,6.0,47,-99.99,,,-99.99,,2013-03-15 22:22:00,
2013-03-15 14:32:00,38.0,20.0,-100.00,SW,235,4.0,6.0,47,-99.99,,,-99.99,,2013-03-15 22:32:00,
2013-03-15 14:42:00,38.0,20.0,-100.00,SW,235,4.0,6.0,47,-99.99,,,-99.99,,2013-03-15 22:42:00,
2013-03-15 14:52:00,36.0,21.0,-100.00,SW,235,7.0,9.0,53,-99.99,,,-99.99,,2013-03-15 22:52:00,
2013-03-15 15:02:00,36.0,21.0,-100.00,SW,235,7.0,9.0,53,-99.99,,,-99.99,,2013-03-15 23:02:00,
2013-03-15 15:12:00,36.0,21.0,-100.00,SW,235,7.0,9.0,53,-99.99,,,-99.99,,2013-03-15 23:12:00,
2013-03-15 15:22:00,37.0,21.0,-100.00,SW,220,6.0,9.0,53,-99.99,,,-99.99,,2013-03-15 23:22:00,
2013-03-15 15:32:00,37.0,21.0,-100.00,SW,220,6.0,9.0,53,-99.99,,,-99.99,,2013-03-15 23:32:00,
2013-03-15 15:42:00,37.0,21.0,-100.00,SW,220,6.0,9.0,53,-99.99,,,-99.99,,2013-03-15 23:42:00,
2013-03-15 15:52:00,37.0,22.0,-100.00,WSW,240,6.0,7.0,53,-99.99,,,-99.99,,2013-03-15 23:52:00,
2013-03-15 16:02:00,37.0,22.0,-100.00,WSW,240,6.0,7.0,53,-99.99,,,-99.99,,2013-03-16 00:02:00,
2013-03-15 16:12:00,37.0,22.0,-100.00,WSW,240,6.0,7.0,53,-99.99,,,-99.99,,2013-03-16 00:12:00,
2013-03-15 16:22:00,38.0,21.0,-100.00,SSW,210,3.0,6.0,50,-99.99,,,-99.99,,2013-03-16 00:22:00,
2013-03-15 16:32:00,38.0,21.0,-100.00,SSW,210,3.0,6.0,50,-99.99,,,-99.99,,2013-03-16 00:32:00,
2013-03-15 16:42:00,38.0,21.0,-100.00,SSW,210,3.0,6.0,50,-99.99,,,-99.99,,2013-03-16 00:42:00,
2013-03-15 16:52:00,36.0,20.0,-100.00,SW,230,6.0,7.0,53,-99.99,,,-99.99,,2013-03-16 00:52:00,
2013-03-15 17:02:00,36.0,20.0,-100.00,SW,230,6.0,7.0,53,-99.99,,,-99.99,,2013-03-16 01:02:00,
2013-03-15 17:12:00,36.0,20.0,-100.00,SW,230,6.0,7.0,53,-99.99,,,-99.99,,2013-03-16 01:12:00,
2013-03-15 17:21:00,36.0,21.0,-100.00,WSW,245,8.0,11.0,54,-99.99,,,-99.99,,2013-03-16 01:21:00,
2013-03-15 17:32:00,36.0,21.0,-100.00,WSW,245,8.0,11.0,54,-99.99,,,-99.99,,2013-03-16 01:32:00,
2013-03-15 17:42:00,36.0,21.0,-100.00,WSW,245,8.0,11.0,54,-99.99,,,-99.99,,2013-03-16 01:42:00,
2013-03-15 17:52:00,35.0,21.0,-100.00,SW,215,7.0,11.0,56,-99.99,,,-99.99,,2013-03-16 01:52:00,
2013-03-15 18:02:00,35.0,21.0,-100.00,SW,215,7.0,11.0,56,-99.99,,,-99.99,,2013-03-16 02:02:00,
2013-03-15 18:12:00,35.0,21.0,-100.00,SW,215,7.0,11.0,56,-99.99,,,-99.99,,2013-03-16 02:12:00,
2013-03-15 18:22:00,35.0,21.0,-100.00,SSW,195,6.0,9.0,56,-99.99,,,-99.99,,2013-03-16 02:22:00,
2013-03-15 18:32:00,35.0,21.0,-100.00,SSW,195,6.0,9.0,56,-99.99,,,-99.99,,2013-03-16 02:32:00,
2013-03-15 18:42:00,35.0,21.0,-100.00,SSW,195,6.0,9.0,56,-99.99,,,-99.99,,2013-03-16 02:42:00,
2013-03-15 18:52:00,34.0,21.0,-100.00,SSW,200,7.0,9.0,58,-99.99,,,-99.99,,2013-03-16 02:52:00,
2013-03-15 19:02:00,34.0,21.0,-100.00,SSW,200,7.0,9.0,58,-99.99,,,-99.99,,2013-03-16 03:02:00,
2013-03-15 19:12:00,34.0,21.0,-100.00,SSW,200,7.0,9.0,58,-99.99,,,-99.99,,2013-03-16 03:12:00,
2013-03-15 19:21:00,34.0,20.0,-100.00,SW,235,4.0,9.0,57,-99.99,,,-99.99,,2013-03-16 03:21:00,
2013-03-15 19:32:00,34.0,20.0,-100.00,SW,235,4.0,9.0,57,-99.99,,,-99.99,,2013-03-16 03:32:00,
2013-03-15 19:43:00,34.0,20.0,-100.00,SW,235,4.0,9.0,57,-99.99,,,-99.99,,2013-03-16 03:43:00,
2013-03-15 19:52:00,31.0,19.0,-100.00,SSW,195,6.0,7.0,62,-99.99,,,-99.99,,2013-03-16 03:52:00,
2013-03-15 20:02:00,31.0,19.0,-100.00,SSW,195,6.0,7.0,62,-99.99,,,-99.99,,2013-03-16 04:02:00,
2013-03-15 20:12:00,31.0,19.0,-100.00,SSW,195,6.0,7.0,62,-99.99,,,-99.99,,2013-03-16 04:12:00,
2013-03-15 20:22:00,30.0,19.0,-100.00,SSE,165,4.0,6.0,64,-99.99,,,-99.99,,2013-03-16 04:22:00,
2013-03-15 20:32:00,30.0,19.0,-100.00,SSE,165,4.0,6.0,64,-99.99,,,-99.99,,2013-03-16 04:32:00,
2013-03-15 20:42:00,30.0,19.0,-100.00,SSE,165,4.0,6.0,64,-99.99,,,-99.99,,2013-03-16 04:42:00,
2013-03-15 20:52:00,29.0,19.0,-100.00,SW,215,2.0,4.0,65,-99.99,,,-99.99,,2013-03-16 04:52:00,
2013-03-15 21:02:00,29.0,19.0,-100.00,SW,215,2.0,4.0,65,-99.99,,,-99.99,,2013-03-16 05:02:00,
2013-03-15 21:12:00,29.0,19.0,-100.00,SW,215,2.0,4.0,65,-99.99,,,-99.99,,2013-03-16 05:12:00,
2013-03-15 21:21:00,29.0,20.0,-100.00,South,175,2.0,2.0,68,-99.99,,,-99.99,,2013-03-16 05:21:00,
2013-03-15 21:32:00,29.0,20.0,-100.00,South,175,2.0,2.0,68,-99.99,,,-99.99,,2013-03-16 05:32:00,
2013-03-15 21:42:00,29.0,20.0,-100.00,South,175,2.0,2.0,68,-99.99,,,-99.99,,2013-03-16 05:42:00,
2013-03-15 21:51:00,29.0,20.0,-100.00,SSE,155,4.0,6.0,69,-99.99,,,-99.99,,2013-03-16 05:51:00,
2013-03-15 22:02:00,29.0,20.0,-100.00,SSE,155,4.0,6.0,69,-99.99,,,-99.99,,2013-03-16 06:02:00,
2013-03-15 22:12:00,29.0,20.0,-100.00,SSE,155,4.0,6.0,69,-99.99,,,-99.99,,2013-03-16 06:12:00,
2013-03-15 22:21:00,26.0,19.0,-100.00,SSE,165,5.0,7.0,73,-99.99,,,-99.99,,2013-03-16 06:21:00,
2013-03-15 22:32:00,26.0,19.0,-100.00,SSE,165,5.0,7.0,73,-99.99,,,-99.99,,2013-03-16 06:32:00,
2013-03-15 22:42:00,26.0,19.0,-100.00,SSE,165,5.0,7.0,73,-99.99,,,-99.99,,2013-03-16 06:42:00,
2013-03-15 22:51:00,27.0,20.0,-100.00,SE,135,4.0,7.0,73,-99.99,,,-99.99,,2013-03-16 06:51:00,
2013-03-15 23:02:00,27.0,20.0,-100.00,SE,135,4.0,7.0,73,-99.99,,,-99.99,,2013-03-16 07:02:00,
2013-03-15 23:12:00,27.0,20.0,-100.00,SE,135,4.0,7.0,73,-99.99,,,-99.99,,2013-03-16 07:12:00,
2013-03-15 23:22:00,26.0,19.0,-100.00,South,170,2.0,3.0,75,-99.99,,,-99.99,,2013-03-16 07:22:00,
2013-03-15 23:32:00,26.0,19.0,-100.00,South,170,2.0,3.0,75,-99.99,,,-99.99,,2013-03-16 07:32:00,
2013-03-15 23:42:00,26.0,19.0,-100.00,South,170,2.0,3.0,75,-99.99,,,-99.99,,2013-03-16 07:42:00,
2013-03-15 23:52:00,25.0,19.0,-100.00,South,175,3.0,4.0,77,-99.99,,,-99.99,,2013-03-16 07:52:00,